Observation data for Seminole on 12/05/2018      Previous  Date       Current Mesonet Observations  Soil Data  Daily Summary Page  Observations in Plain Language
KSM1 050600Z 07006KT 00/M02 A3035 RMK A01 T00041023  RH  082%=      5-min Rain = 0
KSM1 050605Z 07006KT 00/M02 A3034 RMK A01 T00031024  RH  083%=      5-min Rain = 0
KSM1 050610Z 07006KT 00/M03 A3034 RMK A01 T00021025  RH  083%=      5-min Rain = 0
KSM1 050615Z 07006KT 00/M03 A3034 RMK A01 T00021025  RH  083%=      5-min Rain = 0
KSM1 050620Z 08005KT 00/03 A3034 RMK A01 T00000-26  RH  083%=      5-min Rain = 0
KSM1 050625Z 09005KT M00/M03 A3034 RMK A01 T10011026  RH  084%=      5-min Rain = 0
KSM1 050630Z 09005KT M00/M03 A3034 RMK A01 T10021027  RH  084%=      5-min Rain = 0
KSM1 050635Z 10006KT M00/M03 A3034 RMK A01 T10031027  RH  084%=      5-min Rain = 0
KSM1 050640Z 09006KT M00/M03 A3034 RMK A01 T10031027  RH  084%=      5-min Rain = 0
KSM1 050645Z 09005KT M00/M03 A3034 RMK A01 T10041028  RH  084%=      5-min Rain = 0
KSM1 050650Z 09005KT M01/M03 A3034 RMK A01 T10051028  RH  085%=      5-min Rain = 0
KSM1 050655Z 09005KT M01/M03 A3034 RMK A01 T10051028  RH  085%=      5-min Rain = 0
KSM1 050700Z 08005KT M01/M03 A3034 RMK A01 T10061029  RH  085%=      5-min Rain = 0
KSM1 050705Z 09004KT M01/M03 A3034 RMK A01 T10071029  RH  086%=      5-min Rain = 0
KSM1 050710Z 09004KT M01/M03 A3035 RMK A01 T10071029  RH  086%=      5-min Rain = 0
KSM1 050715Z 09004KT M01/M03 A3034 RMK A01 T10081030  RH  086%=      5-min Rain = 0
KSM1 050720Z 09005KT M01/M03 A3034 RMK A01 T10091031  RH  086%=      5-min Rain = 0
KSM1 050725Z 10005KT M01/M03 A3034 RMK A01 T10101031  RH  086%=      5-min Rain = 0
KSM1 050730Z 11005KT M01/M03 A3034 RMK A01 T10101030  RH  087%=      5-min Rain = 0
KSM1 050735Z 11005KT M01/M03 A3034 RMK A01 T10111031  RH  087%=      5-min Rain = 0
KSM1 050740Z 10004KT M01/M03 A3034 RMK A01 T10121031  RH  087%=      5-min Rain = 0
KSM1 050745Z 09004KT M01/M03 A3034 RMK A01 T10131033  RH  087%=      5-min Rain = 0
KSM1 050750Z 09004KT M01/M03 A3034 RMK A01 T10141033  RH  088%=      5-min Rain = 0
KSM1 050755Z 09005KT M02/M03 A3033 RMK A01 T10161034  RH  088%=      5-min Rain = 0
KSM1 050800Z 10005KT M02/M03 A3034 RMK A01 T10151033  RH  088%=      5-min Rain = 0
KSM1 050805Z 10005KT M02/M03 A3034 RMK A01 T10151033  RH  088%=      5-min Rain = 0
KSM1 050810Z 10004KT M01/M03 A3033 RMK A01 T10141031  RH  088%=      5-min Rain = 0
KSM1 050815Z 11005KT M01/M03 A3033 RMK A01 T10121030  RH  088%=      5-min Rain = 0
KSM1 050820Z 11004KT M01/M03 A3033 RMK A01 T10121030  RH  088%=      5-min Rain = 0
KSM1 050825Z 12004KT M01/M03 A3033 RMK A01 T10121030  RH  088%=      5-min Rain = 0
KSM1 050830Z 13004KT M01/M03 A3033 RMK A01 T10111029  RH  088%=      5-min Rain = 0
KSM1 050835Z 13004KT M01/M03 A3033 RMK A01 T10111030  RH  088%=      5-min Rain = 0
KSM1 050840Z 12004KT M01/M03 A3033 RMK A01 T10111030  RH  088%=      5-min Rain = 0
KSM1 050845Z 13004KT M01/M03 A3033 RMK A01 T10121030  RH  088%=      5-min Rain = 0
KSM1 050850Z 13004KT M01/M03 A3033 RMK A01 T10121030  RH  088%=      5-min Rain = 0
KSM1 050855Z 13004KT M01/M03 A3033 RMK A01 T10131031  RH  088%=      5-min Rain = 0
KSM1 050900Z 12004KT M01/M03 A3033 RMK A01 T10141031  RH  089%=      5-min Rain = 0
KSM1 050905Z 13004KT M01/M03 A3033 RMK A01 T10141031  RH  089%=      5-min Rain = 0
KSM1 050910Z 13004KT M01/M03 A3033 RMK A01 T10141031  RH  089%=      5-min Rain = 0
KSM1 050915Z 13004KT M01/M03 A3033 RMK A01 T10141031  RH  089%=      5-min Rain = 0
KSM1 050920Z 13004KT M02/M03 A3032 RMK A01 T10151032  RH  089%=      5-min Rain = 0
KSM1 050925Z 13004KT M02/M03 A3032 RMK A01 T10171034  RH  089%=      5-min Rain = 0
KSM1 050930Z 13004KT M02/M03 A3032 RMK A01 T10181034  RH  090%=      5-min Rain = 0
KSM1 050935Z 12005KT M02/M03 A3032 RMK A01 T10171032  RH  090%=      5-min Rain = 0
KSM1 050940Z 13004KT M02/M03 A3031 RMK A01 T10171032  RH  090%=      5-min Rain = 0
KSM1 050945Z 13004KT M02/M03 A3031 RMK A01 T10171032  RH  090%=      5-min Rain = 0
KSM1 050950Z 13004KT M02/M03 A3031 RMK A01 T10171031  RH  090%=      5-min Rain = 0
KSM1 050955Z 13004KT M02/M03 A3031 RMK A01 T10171032  RH  090%=      5-min Rain = 0
KSM1 051000Z 12004KT M02/M03 A3031 RMK A01 T10191034  RH  090%=      5-min Rain = 0
KSM1 051005Z 12004KT M02/M03 A3031 RMK A01 T10201034  RH  091%=      5-min Rain = 0
KSM1 051010Z 11003KT M02/M04 A3032 RMK A01 T10201035  RH  090%=      5-min Rain = 0
KSM1 051015Z 09004KT M02/M03 A3032 RMK A01 T10201034  RH  091%=      5-min Rain = 0
KSM1 051020Z 08004KT M02/M03 A3032 RMK A01 T10211034  RH  091%=      5-min Rain = 0
KSM1 051025Z 08003KT M02/M03 A3032 RMK A01 T10201033  RH  092%=      5-min Rain = 0
KSM1 051030Z 09003KT M02/M03 A3031 RMK A01 T10191032  RH  092%=      5-min Rain = 0
KSM1 051035Z 10003KT M02/M03 A3031 RMK A01 T10181031  RH  092%=      5-min Rain = 0
KSM1 051040Z 09004KT M02/M03 A3031 RMK A01 T10191033  RH  091%=      5-min Rain = 0
KSM1 051045Z 09004KT M02/M04 A3031 RMK A01 T10211035  RH  091%=      5-min Rain = 0
KSM1 051050Z 09004KT M02/M03 A3031 RMK A01 T10211033  RH  092%=      5-min Rain = 0
KSM1 051055Z 09003KT M02/M03 A303 RMK A01 T10211033  RH  092%=      5-min Rain = 0
KSM1 051100Z 09003KT M02/M03 A303 RMK A01 T10211033  RH  092%=      5-min Rain = 0
KSM1 051105Z 09002KT M02/M03 A303 RMK A01 T10211034  RH  092%=      5-min Rain = 0
KSM1 051110Z 09002KT M02/M03 A303 RMK A01 T10211033  RH  092%=      5-min Rain = 0
KSM1 051115Z 10002KT M02/M03 A303 RMK A01 T10221033  RH  092%=      5-min Rain = 0
KSM1 051120Z 10002KT M02/M03 A303 RMK A01 T10221033  RH  092%=      5-min Rain = 0
KSM1 051125Z 11002KT M02/M03 A303 RMK A01 T10211032  RH  093%=      5-min Rain = 0
KSM1 051130Z 11002KT M02/M03 A303 RMK A01 T10211032  RH  092%=      5-min Rain = 0
KSM1 051135Z 11002KT M02/M03 A303 RMK A01 T10211032  RH  092%=      5-min Rain = 0
KSM1 051140Z 12002KT M02/M03 A303 RMK A01 T10201031  RH  093%=      5-min Rain = 0
KSM1 051145Z 12001KT M02/M03 A303 RMK A01 T10191030  RH  093%=      5-min Rain = 0
KSM1 051150Z 13001KT M02/M03 A303 RMK A01 T10171029  RH  093%=      5-min Rain = 0
KSM1 051155Z 16003KT M02/M03 A303 RMK A01 T10171029  RH  092%=      5-min Rain = 0
KSM1 051200Z 17004KT M02/M03 A3029 RMK A01 T10161029  RH  092%=      5-min Rain = 0
KSM1 051205Z 18004KT M02/M03 A3029 RMK A01 T10171030  RH  091%=      5-min Rain = 0
KSM1 051210Z 18004KT M02/M03 A3029 RMK A01 T10171030  RH  091%=      5-min Rain = 0
KSM1 051215Z 18003KT M02/M03 A3029 RMK A01 T10181031  RH  091%=      5-min Rain = 0
KSM1 051220Z 17003KT M02/M03 A3029 RMK A01 T10181031  RH  091%=      5-min Rain = 0
KSM1 051225Z 16003KT M02/M03 A3029 RMK A01 T10201033  RH  091%=      5-min Rain = 0
KSM1 051230Z 16003KT M02/M03 A3029 RMK A01 T10211033  RH  092%=      5-min Rain = 0
KSM1 051235Z 17003KT M02/M03 A3029 RMK A01 T10191031  RH  092%=      5-min Rain = 0
KSM1 051240Z 18003KT M02/M03 A3029 RMK A01 T10171028  RH  093%=      5-min Rain = 0
KSM1 051245Z 19004KT M02/M03 A3029 RMK A01 T10161027  RH  092%=      5-min Rain = 0
KSM1 051250Z 18004KT M02/M03 A3029 RMK A01 T10161028  RH  092%=      5-min Rain = 0
KSM1 051255Z 17003KT M02/M03 A3029 RMK A01 T10161028  RH  092%=      5-min Rain = 0
KSM1 051300Z 16003KT M02/M03 A3029 RMK A01 T10151027  RH  092%=      5-min Rain = 0
KSM1 051305Z 16003KT M02/M03 A3029 RMK A01 T10151027  RH  092%=      5-min Rain = 0
KSM1 051310Z 16003KT M02/M03 A3029 RMK A01 T10151027  RH  092%=      5-min Rain = 0
KSM1 051315Z 17003KT M02/M03 A3029 RMK A01 T10151028  RH  092%=      5-min Rain = 0
KSM1 051320Z 17004KT M02/M03 A3029 RMK A01 T10151028  RH  092%=      5-min Rain = 0
KSM1 051325Z 17004KT M02/M03 A3029 RMK A01 T10161029  RH  091%=      5-min Rain = 0
KSM1 051330Z 17005KT M02/M03 A3029 RMK A01 T10171030  RH  092%=      5-min Rain = 0
KSM1 051335Z 17005KT M02/M03 A3029 RMK A01 T10191031  RH  092%=      5-min Rain = 0
KSM1 051340Z 17005KT M02/M03 A3028 RMK A01 T10191031  RH  092%=      5-min Rain = 0
KSM1 051345Z 16005KT M02/M03 A3028 RMK A01 T10191030  RH  093%=      5-min Rain = 0
KSM1 051350Z 15006KT M02/M03 A3028 RMK A01 T10171028  RH  093%=      5-min Rain = 0
KSM1 051355Z 15006KT M02/M03 A3028 RMK A01 T10171028  RH  093%=      5-min Rain = 0
KSM1 051400Z 15005KT M02/M03 A3028 RMK A01 T10171028  RH  093%=      5-min Rain = 0
KSM1 051405Z 15005KT M02/M03 A3028 RMK A01 T10181029  RH  093%=      5-min Rain = 0
KSM1 051410Z 16005KT M02/M03 A3029 RMK A01 T10181029  RH  093%=      5-min Rain = 0
KSM1 051415Z 17005KT M02/M03 A3029 RMK A01 T10171028  RH  093%=      5-min Rain = 0
KSM1 051420Z 18005KT M01/M03 A3029 RMK A01 T10141025  RH  093%=      5-min Rain = 0
KSM1 051425Z 17006KT M01/M02 A3029 RMK A01 T10101021  RH  093%=      5-min Rain = 0
KSM1 051430Z 17006KT M01/M02 A3029 RMK A01 T10051018  RH  092%=      5-min Rain = 0
KSM1 051435Z 17007KT M00/M02 A3029 RMK A01 T10021017  RH  091%=      5-min Rain = 0
KSM1 051440Z 17007KT 00/02 A3029 RMK A01 T00000-17  RH  089%=      5-min Rain = 0
KSM1 051445Z 16008KT 00/M02 A3029 RMK A01 T00011017  RH  089%=      5-min Rain = 0
KSM1 051450Z 17008KT 00/M02 A3029 RMK A01 T00031015  RH  089%=      5-min Rain = 0
KSM1 051455Z 16007KT 01/M01 A3029 RMK A01 T00071013  RH  087%=      5-min Rain = 0
KSM1 051500Z 16008KT 01/M01 A3029 RMK A01 T00111012  RH  085%=      5-min Rain = 0
KSM1 051505Z 16009KT 02/M01 A3029 RMK A01 T00151012  RH  084%=      5-min Rain = 0
KSM1 051510Z 17008KT 02/M01 A3029 RMK A01 T00161012  RH  083%=      5-min Rain = 0
KSM1 051515Z 17008KT 02/M01 A303 RMK A01 T00181010  RH  083%=      5-min Rain = 0
KSM1 051520Z 17009KT 02/M01 A303 RMK A01 T00201009  RH  082%=      5-min Rain = 0
KSM1 051525Z 17009KT 02/M01 A303 RMK A01 T00231009  RH  081%=      5-min Rain = 0
KSM1 051530Z 17008KT 03/M01 A303 RMK A01 T00251007  RH  080%=      5-min Rain = 0
KSM1 051535Z 17007KT 03/M01 A3031 RMK A01 T00301005  RH  079%=      5-min Rain = 0
KSM1 051540Z 17009KT 03/M01 A3031 RMK A01 T00331006  RH  077%=      5-min Rain = 0
KSM1 051545Z 17008KT 03/M01 A3031 RMK A01 T00341005  RH  076%=      5-min Rain = 0
KSM1 051550Z 17008KT 04/M00 A303 RMK A01 T00391004  RH  075%=      5-min Rain = 0
KSM1 051555Z 18010KT 04/M00 A3031 RMK A01 T00431003  RH  073%=      5-min Rain = 0
KSM1 051600Z 18010KT 05/M00 A3031 RMK A01 T00481003  RH  070%=      5-min Rain = 0
KSM1 051605Z 18010KT 05/M00 A303 RMK A01 T00501004  RH  069%=      5-min Rain = 0
KSM1 051610Z 17010G15KT 05/M00 A303 RMK A01 T00501004  RH  069%=      5-min Rain = 0
KSM1 051615Z 17011KT 05/M00 A3031 RMK A01 T00531003  RH  068%=      5-min Rain = 0
KSM1 051620Z 17011KT 06/M00 A3031 RMK A01 T00561002  RH  067%=      5-min Rain = 0
KSM1 051625Z 18012KT 06/M00 A3031 RMK A01 T00611001  RH  065%=      5-min Rain = 0
KSM1 051630Z 18011KT 07/00 A3031 RMK A01 T00650000  RH  064%=      5-min Rain = 0
KSM1 051635Z 17012KT 07/00 A3031 RMK A01 T00690000  RH  063%=      5-min Rain = 0
KSM1 051640Z 18011G16KT 07/00 A3031 RMK A01 T00730002  RH  061%=      5-min Rain = 0
KSM1 051645Z 18011G17KT 08/00 A303 RMK A01 T00770002  RH  060%=      5-min Rain = 0
KSM1 051650Z 19013KT 08/00 A303 RMK A01 T00770000  RH  059%=      5-min Rain = 0
KSM1 051655Z 18012KT 08/00 A303 RMK A01 T00770000  RH  059%=      5-min Rain = 0
KSM1 051700Z 18014KT 08/00 A3029 RMK A01 T00770000  RH  059%=      5-min Rain = 0
KSM1 051705Z 17014KT 08/00 A3029 RMK A01 T00780000  RH  059%=      5-min Rain = 0
KSM1 051710Z 18014KT 08/00 A3028 RMK A01 T00790000  RH  058%=      5-min Rain = 0
KSM1 051715Z 18014G19KT 08/00 A3028 RMK A01 T00790001  RH  058%=      5-min Rain = 0
KSM1 051720Z 18017KT 08/00 A3028 RMK A01 T00800000  RH  058%=      5-min Rain = 0
KSM1 051725Z 18016KT 08/00 A3027 RMK A01 T00830001  RH  057%=      5-min Rain = 0
KSM1 051730Z 18016G21KT 09/00 A3027 RMK A01 T00870002  RH  056%=      5-min Rain = 0
KSM1 051735Z 17014G19KT 09/00 A3027 RMK A01 T00900004  RH  055%=      5-min Rain = 0
KSM1 051740Z 17014G20KT 10/01 A3027 RMK A01 T00960005  RH  054%=      5-min Rain = 0
KSM1 051745Z 18015G20KT 09/00 A3027 RMK A01 T00940004  RH  054%=      5-min Rain = 0
KSM1 051750Z 18016G21KT 09/00 A3027 RMK A01 T00910004  RH  055%=      5-min Rain = 0
KSM1 051755Z 18015G20KT 09/01 A3026 RMK A01 T00920005  RH  055%=      5-min Rain = 0
KSM1 051800Z 18013KT 09/01 A3025 RMK A01 T00940007  RH  055%=      5-min Rain = 0
KSM1 051805Z 18014KT 10/01 A3025 RMK A01 T00980009  RH  054%=      5-min Rain = 0
KSM1 051810Z 17017G22KT 10/01 A3024 RMK A01 T01020011  RH  054%=      5-min Rain = 0
KSM1 051815Z 18016G23KT 10/01 A3023 RMK A01 T01040012  RH  053%=      5-min Rain = 0
KSM1 051820Z 17019G25KT 11/01 A3023 RMK A01 T01060013  RH  053%=      5-min Rain = 0
KSM1 051825Z 17018G24KT 11/01 A3023 RMK A01 T01050014  RH  054%=      5-min Rain = 0
KSM1 051830Z 17017G22KT 11/02 A3022 RMK A01 T01080016  RH  054%=      5-min Rain = 0
KSM1 051835Z 17018G23KT 11/02 A3022 RMK A01 T01090017  RH  054%=      5-min Rain = 0
KSM1 051840Z 17019G26KT 11/02 A3021 RMK A01 T01090019  RH  055%=      5-min Rain = 0
KSM1 051845Z 17020G25KT 11/02 A3021 RMK A01 T01080019  RH  055%=      5-min Rain = 0
KSM1 051850Z 17019G25KT 11/02 A302 RMK A01 T01080020  RH  055%=      5-min Rain = 0
KSM1 051855Z 17018G23KT 11/02 A302 RMK A01 T01100020  RH  055%=      5-min Rain = 0
KSM1 051900Z 17018G23KT 11/02 A302 RMK A01 T01120020  RH  054%=      5-min Rain = 0
KSM1 051905Z 16018KT 11/02 A3019 RMK A01 T01130020  RH  053%=      5-min Rain = 0
KSM1 051910Z 16016G22KT 12/02 A3019 RMK A01 T01160020  RH  053%=      5-min Rain = 0
KSM1 051915Z 17017KT 12/02 A3019 RMK A01 T01170020  RH  052%=      5-min Rain = 0
KSM1 051920Z 16017KT 12/02 A3018 RMK A01 T01180021  RH  052%=      5-min Rain = 0
KSM1 051925Z 16017KT 12/02 A3018 RMK A01 T01180021  RH  052%=      5-min Rain = 0
KSM1 051930Z 17014KT 12/02 A3017 RMK A01 T01200021  RH  052%=      5-min Rain = 0
KSM1 051935Z 17015KT 12/02 A3017 RMK A01 T01200021  RH  052%=      5-min Rain = 0
KSM1 051940Z 18016G21KT 12/02 A3017 RMK A01 T01200021  RH  051%=      5-min Rain = 0
KSM1 051945Z 17017KT 12/02 A3016 RMK A01 T01190020  RH  051%=      5-min Rain = 0
KSM1 051950Z 17015KT 12/02 A3016 RMK A01 T01200020  RH  051%=      5-min Rain = 0
KSM1 051955Z 17015KT 12/02 A3016 RMK A01 T01210020  RH  051%=      5-min Rain = 0
KSM1 052000Z 16015KT 12/02 A3015 RMK A01 T01210020  RH  051%=      5-min Rain = 0
KSM1 052005Z 17015KT 12/02 A3015 RMK A01 T01210020  RH  051%=      5-min Rain = 0
KSM1 052010Z 18015KT 12/02 A3015 RMK A01 T01220021  RH  051%=      5-min Rain = 0
KSM1 052015Z 17016KT 12/02 A3014 RMK A01 T01240021  RH  050%=      5-min Rain = 0
KSM1 052020Z 17015G20KT 13/02 A3014 RMK A01 T01250021  RH  050%=      5-min Rain = 0
KSM1 052025Z 17016G22KT 13/02 A3013 RMK A01 T01280023  RH  050%=      5-min Rain = 0
KSM1 052030Z 18017KT 13/02 A3013 RMK A01 T01280022  RH  049%=      5-min Rain = 0
KSM1 052035Z 17016KT 13/02 A3013 RMK A01 T01300023  RH  049%=      5-min Rain = 0
KSM1 052040Z 16016KT 13/02 A3012 RMK A01 T01320023  RH  048%=      5-min Rain = 0
KSM1 052045Z 17017KT 13/02 A3012 RMK A01 T01300023  RH  049%=      5-min Rain = 0
KSM1 052050Z 17017G23KT 13/02 A3012 RMK A01 T01300024  RH  049%=      5-min Rain = 0
KSM1 052055Z 17016KT 13/03 A3011 RMK A01 T01290026  RH  050%=      5-min Rain = 0
KSM1 052100Z 16017G22KT 13/03 A3011 RMK A01 T01300027  RH  050%=      5-min Rain = 0
KSM1 052105Z 16017KT 13/03 A3012 RMK A01 T01290028  RH  051%=      5-min Rain = 0
KSM1 052110Z 17017KT 13/03 A3011 RMK A01 T01280028  RH  051%=      5-min Rain = 0
KSM1 052115Z 17016KT 13/03 A3011 RMK A01 T01250028  RH  052%=      5-min Rain = 0
KSM1 052120Z 16017KT 12/03 A3011 RMK A01 T01220027  RH  053%=      5-min Rain = 0
KSM1 052125Z 17016KT 12/03 A3011 RMK A01 T01200026  RH  053%=      5-min Rain = 0
KSM1 052130Z 16017KT 12/03 A3011 RMK A01 T01190025  RH  053%=      5-min Rain = 0
KSM1 052135Z 17015KT 12/03 A3011 RMK A01 T01170025  RH  054%=      5-min Rain = 0
KSM1 052140Z 17014KT 12/03 A3011 RMK A01 T01180025  RH  054%=      5-min Rain = 0
KSM1 052145Z 18014KT 12/02 A3011 RMK A01 T01180024  RH  053%=      5-min Rain = 0
KSM1 052150Z 18013G18KT 12/02 A3011 RMK A01 T01170024  RH  054%=      5-min Rain = 0
KSM1 052155Z 17014G20KT 12/03 A3011 RMK A01 T01170025  RH  054%=      5-min Rain = 0
KSM1 052200Z 17014KT 12/02 A3011 RMK A01 T01160024  RH  054%=      5-min Rain = 0
KSM1 052205Z 17015KT 12/03 A3011 RMK A01 T01160025  RH  054%=      5-min Rain = 0
KSM1 052210Z 16015KT 12/03 A301 RMK A01 T01150025  RH  055%=      5-min Rain = 0
KSM1 052215Z 18016KT 12/02 A301 RMK A01 T01150024  RH  055%=      5-min Rain = 0
KSM1 052220Z 17015KT 11/02 A301 RMK A01 T01140024  RH  055%=      5-min Rain = 0
KSM1 052225Z 18013KT 11/02 A301 RMK A01 T01140024  RH  055%=      5-min Rain = 0
KSM1 052230Z 18013G18KT 11/02 A3011 RMK A01 T01130024  RH  055%=      5-min Rain = 0
KSM1 052235Z 17014KT 11/02 A301 RMK A01 T01130024  RH  055%=      5-min Rain = 0
KSM1 052240Z 17013KT 11/02 A301 RMK A01 T01120024  RH  056%=      5-min Rain = 0
KSM1 052245Z 17015KT 11/02 A3011 RMK A01 T01120024  RH  056%=      5-min Rain = 0
KSM1 052250Z 17014KT 11/02 A3011 RMK A01 T01100024  RH  056%=      5-min Rain = 0
KSM1 052255Z 17013KT 11/02 A3011 RMK A01 T01090024  RH  057%=      5-min Rain = 0
KSM1 052300Z 17014KT 11/02 A3011 RMK A01 T01080024  RH  057%=      5-min Rain = 0
KSM1 052305Z 17015KT 11/02 A301 RMK A01 T01070024  RH  058%=      5-min Rain = 0
KSM1 052310Z 17012KT 11/03 A301 RMK A01 T01060025  RH  058%=      5-min Rain = 0
KSM1 052315Z 17013KT 10/03 A301 RMK A01 T01040025  RH  059%=      5-min Rain = 0
KSM1 052320Z 17012G17KT 10/03 A301 RMK A01 T01030025  RH  059%=      5-min Rain = 0
KSM1 052325Z 17016KT 10/02 A301 RMK A01 T01020024  RH  060%=      5-min Rain = 0
KSM1 052330Z 17013KT 10/02 A301 RMK A01 T01000024  RH  060%=      5-min Rain = 0
KSM1 052335Z 17013KT 10/02 A301 RMK A01 T00990024  RH  061%=      5-min Rain = 0
KSM1 052340Z 18011KT 10/02 A301 RMK A01 T00970024  RH  061%=      5-min Rain = 0
KSM1 052345Z 18010KT 10/02 A301 RMK A01 T00960024  RH  062%=      5-min Rain = 0
KSM1 052350Z 17009KT 10/03 A301 RMK A01 T00950025  RH  062%=      5-min Rain = 0
KSM1 052355Z 17008KT 09/03 A301 RMK A01 T00940025  RH  063%=      5-min Rain = 0
KSM1 060000Z 17008KT 09/03 A301 RMK A01 T00920025  RH  064%=      5-min Rain = 0
KSM1 060005Z 17007KT 09/03 A301 RMK A01 T00910025  RH  064%=      5-min Rain = 0
KSM1 060010Z 17007KT 09/03 A301 RMK A01 T00910025  RH  065%=      5-min Rain = 0
KSM1 060015Z 17007KT 09/03 A301 RMK A01 T00900025  RH  065%=      5-min Rain = 0
KSM1 060020Z 17007KT 09/03 A301 RMK A01 T00890026  RH  065%=      5-min Rain = 0
KSM1 060025Z 16006KT 09/03 A301 RMK A01 T00870025  RH  066%=      5-min Rain = 0
KSM1 060030Z 16006KT 09/03 A301 RMK A01 T00850025  RH  067%=      5-min Rain = 0
KSM1 060035Z 16006KT 08/03 A301 RMK A01 T00830026  RH  068%=      5-min Rain = 0
KSM1 060040Z 16005KT 08/03 A301 RMK A01 T00820026  RH  069%=      5-min Rain = 0
KSM1 060045Z 16006KT 08/03 A301 RMK A01 T00810026  RH  069%=      5-min Rain = 0
KSM1 060050Z 15005KT 08/03 A3009 RMK A01 T00800026  RH  070%=      5-min Rain = 0
KSM1 060055Z 15005KT 08/03 A3009 RMK A01 T00790026  RH  070%=      5-min Rain = 0
KSM1 060100Z 15005KT 08/03 A3009 RMK A01 T00780027  RH  071%=      5-min Rain = 0
KSM1 060105Z 14006KT 08/03 A3009 RMK A01 T00790027  RH  071%=      5-min Rain = 0
KSM1 060110Z 14007KT 08/03 A3009 RMK A01 T00800028  RH  071%=      5-min Rain = 0
KSM1 060115Z 15006KT 08/03 A3009 RMK A01 T00790028  RH  071%=      5-min Rain = 0
KSM1 060120Z 15005KT 08/03 A3009 RMK A01 T00770027  RH  072%=      5-min Rain = 0
KSM1 060125Z 16006KT 08/03 A3009 RMK A01 T00750028  RH  073%=      5-min Rain = 0
KSM1 060130Z 17006KT 08/03 A301 RMK A01 T00760028  RH  073%=      5-min Rain = 0
KSM1 060135Z 17005KT 08/03 A301 RMK A01 T00750028  RH  073%=      5-min Rain = 0
KSM1 060140Z 17005KT 07/03 A301 RMK A01 T00740028  RH  074%=      5-min Rain = 0
KSM1 060145Z 17005KT 07/03 A301 RMK A01 T00730028  RH  074%=      5-min Rain = 0
KSM1 060150Z 17005KT 07/03 A301 RMK A01 T00720028  RH  075%=      5-min Rain = 0
KSM1 060155Z 17004KT 07/03 A301 RMK A01 T00710028  RH  075%=      5-min Rain = 0
KSM1 060200Z 16003KT 07/03 A301 RMK A01 T00710028  RH  076%=      5-min Rain = 0
KSM1 060205Z 16003KT 07/03 A301 RMK A01 T00700028  RH  076%=      5-min Rain = 0
KSM1 060210Z 16005KT 07/03 A301 RMK A01 T00690027  RH  076%=      5-min Rain = 0
KSM1 060215Z 16006KT 07/03 A301 RMK A01 T00670027  RH  077%=      5-min Rain = 0
KSM1 060220Z 16006KT 07/03 A301 RMK A01 T00660029  RH  078%=      5-min Rain = 0
KSM1 060225Z 16005KT 07/03 A3009 RMK A01 T00670029  RH  078%=      5-min Rain = 0
KSM1 060230Z 16004KT 07/03 A3009 RMK A01 T00680029  RH  078%=      5-min Rain = 0
KSM1 060235Z 15005KT 07/03 A3009 RMK A01 T00680029  RH  078%=      5-min Rain = 0
KSM1 060240Z 16004KT 07/03 A301 RMK A01 T00670029  RH  078%=      5-min Rain = 0
KSM1 060245Z 17003KT 07/03 A301 RMK A01 T00660029  RH  078%=      5-min Rain = 0
KSM1 060250Z 17003KT 07/03 A301 RMK A01 T00660029  RH  079%=      5-min Rain = 0
KSM1 060255Z 16003KT 07/03 A301 RMK A01 T00650029  RH  079%=      5-min Rain = 0
KSM1 060300Z 16004KT 07/03 A301 RMK A01 T00650029  RH  079%=      5-min Rain = 0
KSM1 060305Z 16003KT 07/03 A301 RMK A01 T00660029  RH  079%=      5-min Rain = 0
KSM1 060310Z 16006KT 07/03 A301 RMK A01 T00660030  RH  079%=      5-min Rain = 0
KSM1 060315Z 16007KT 07/03 A3009 RMK A01 T00650030  RH  080%=      5-min Rain = 0
KSM1 060320Z 16007KT 07/03 A3009 RMK A01 T00650030  RH  080%=      5-min Rain = 0
KSM1 060325Z 16007KT 07/03 A3009 RMK A01 T00660030  RH  079%=      5-min Rain = 0
KSM1 060330Z 16007KT 07/03 A3009 RMK A01 T00660030  RH  079%=      5-min Rain = 0
KSM1 060335Z 17006KT 07/03 A3009 RMK A01 T00670031  RH  079%=      5-min Rain = 0
KSM1 060340Z 17005KT 07/03 A3009 RMK A01 T00670031  RH  079%=      5-min Rain = 0
KSM1 060345Z 17006KT 07/03 A3009 RMK A01 T00680032  RH  079%=      5-min Rain = 0
KSM1 060350Z 17007KT 07/03 A3009 RMK A01 T00690032  RH  079%=      5-min Rain = 0
KSM1 060355Z 17008KT 07/03 A3009 RMK A01 T00700033  RH  078%=      5-min Rain = 0
KSM1 060400Z 17007KT 07/03 A3009 RMK A01 T00710033  RH  078%=      5-min Rain = 0
KSM1 060405Z 17008KT 07/03 A3009 RMK A01 T00720033  RH  077%=      5-min Rain = 0
KSM1 060410Z 17008KT 07/03 A3009 RMK A01 T00720032  RH  077%=      5-min Rain = 0
KSM1 060415Z 17008KT 07/03 A3009 RMK A01 T00710032  RH  078%=      5-min Rain = 0
KSM1 060420Z 17008KT 07/03 A3009 RMK A01 T00710032  RH  078%=      5-min Rain = 0
KSM1 060425Z 17009KT 07/03 A3008 RMK A01 T00710032  RH  078%=      5-min Rain = 0
KSM1 060430Z 17009KT 07/03 A3008 RMK A01 T00710032  RH  078%=      5-min Rain = 0
KSM1 060435Z 17010KT 07/03 A3008 RMK A01 T00720032  RH  077%=      5-min Rain = 0
KSM1 060440Z 17010KT 07/03 A3008 RMK A01 T00720033  RH  077%=      5-min Rain = 0
KSM1 060445Z 18010KT 07/03 A3009 RMK A01 T00720033  RH  077%=      5-min Rain = 0
KSM1 060450Z 17009KT 07/03 A3009 RMK A01 T00720032  RH  078%=      5-min Rain = 0
KSM1 060455Z 17009KT 07/03 A3009 RMK A01 T00710032  RH  078%=      5-min Rain = 0
KSM1 060500Z 17008KT 07/03 A3009 RMK A01 T00700032  RH  078%=      5-min Rain = 0
KSM1 060505Z 16008KT 07/03 A3008 RMK A01 T00680031  RH  079%=      5-min Rain = 0
KSM1 060510Z 17008KT 07/03 A3008 RMK A01 T00670031  RH  079%=      5-min Rain = 0
KSM1 060515Z 18010KT 07/03 A3008 RMK A01 T00670032  RH  080%=      5-min Rain = 0
KSM1 060520Z 18010KT 07/03 A3008 RMK A01 T00670032  RH  080%=      5-min Rain = 0
KSM1 060525Z 18010KT 07/03 A3008 RMK A01 T00680032  RH  080%=      5-min Rain = 0
KSM1 060530Z 18010KT 07/03 A3008 RMK A01 T00670033  RH  080%=      5-min Rain = 0
KSM1 060535Z 18011KT 07/03 A3008 RMK A01 T00670033  RH  080%=      5-min Rain = 0
KSM1 060540Z 18011KT 07/03 A3008 RMK A01 T00670033  RH  080%=      5-min Rain = 0
KSM1 060545Z 18011KT 07/03 A3007 RMK A01 T00660033  RH  081%=      5-min Rain = 0
KSM1 060550Z 18011KT 07/03 A3007 RMK A01 T00660033  RH  081%=      5-min Rain = 0
KSM1 060555Z 18011KT 07/03 A3008 RMK A01 T00660033  RH  081%=      5-min Rain = 0

Page generated in 0.0093 seconds.